TimePDT,TemperatureF,Dew PointF,Humidity,Sea Level PressureIn,VisibilityMPH,Wind Direction,Wind SpeedMPH,Gust SpeedMPH,PrecipitationIn,Events,Conditions,WindDirDegrees,DateUTC
12:53 AM,43.0,21.9,43,29.84,10.0,NNW,4.6,-,N/A,,Overcast,330,2012-10-09 07:53:00
1:53 AM,43.0,23.0,45,29.87,10.0,North,4.6,-,N/A,,Overcast,350,2012-10-09 08:53:00
2:53 AM,43.0,23.0,45,29.87,10.0,NNW,4.6,-,N/A,,Overcast,330,2012-10-09 09:53:00
3:53 AM,39.9,27.0,60,29.89,10.0,Calm,Calm,-,N/A,,Overcast,0,2012-10-09 10:53:00
4:53 AM,37.9,28.9,70,29.91,10.0,Variable,3.5,-,N/A,,Overcast,0,2012-10-09 11:53:00
6:53 AM,36.0,30.0,79,29.94,10.0,South,4.6,-,N/A,,Clear,170,2012-10-09 13:53:00
7:53 AM,37.0,30.0,76,29.95,10.0,SSE,6.9,-,N/A,,Clear,160,2012-10-09 14:53:00
8:53 AM,39.9,32.0,73,29.95,10.0,SSE,6.9,-,N/A,,Clear,160,2012-10-09 15:53:00
9:53 AM,42.1,32.0,67,29.99,10.0,Variable,4.6,-,N/A,,Clear,0,2012-10-09 16:53:00
10:53 AM,45.0,32.0,60,29.96,10.0,Variable,4.6,-,N/A,,Clear,0,2012-10-09 17:53:00
11:53 AM,48.0,30.9,52,29.96,10.0,Calm,Calm,-,N/A,,Clear,0,2012-10-09 18:53:00
12:53 PM,50.0,30.0,46,29.94,10.0,Calm,Calm,-,N/A,,Clear,0,2012-10-09 19:53:00
1:53 PM,52.0,28.9,41,29.92,10.0,Variable,3.5,-,N/A,,Clear,0,2012-10-09 20:53:00
2:53 PM,51.1,28.0,41,29.92,10.0,NNW,5.8,-,N/A,,Clear,330,2012-10-09 21:53:00
3:53 PM,50.0,28.9,44,29.93,10.0,Variable,6.9,-,N/A,,Clear,0,2012-10-09 22:53:00
4:53 PM,48.0,28.9,48,29.98,10.0,Variable,5.8,-,N/A,,Clear,0,2012-10-09 23:53:00
5:53 PM,46.0,28.9,51,29.96,10.0,NW,5.8,-,N/A,,Clear,320,2012-10-10 00:53:00
6:53 PM,44.1,28.9,55,29.96,10.0,NW,5.8,-,N/A,,Clear,310,2012-10-10 01:53:00
7:53 PM,43.0,28.9,58,29.97,10.0,NNW,5.8,-,N/A,,Clear,330,2012-10-10 02:53:00
8:53 PM,42.1,28.9,60,29.96,10.0,Variable,3.5,-,N/A,,Clear,0,2012-10-10 03:53:00
9:53 PM,42.1,30.0,62,29.95,10.0,WNW,4.6,-,N/A,,Clear,300,2012-10-10 04:53:00
10:53 PM,42.1,30.0,62,29.93,10.0,WNW,4.6,-,N/A,,Clear,300,2012-10-10 05:53:00
11:53 PM,42.1,30.0,62,29.91,10.0,WNW,4.6,-,N/A,,Clear,300,2012-10-10 06:53:00